createdAt,value
2022-12-15T00:00:01.238Z,94835.63
2022-12-15T00:02:48.322Z,94835.63
2022-12-15T00:05:33.612Z,94838.38
2022-12-15T00:08:24.671Z,94848.09
2022-12-15T00:11:09.856Z,94842.63
2022-12-15T00:13:55.162Z,94850.16
2022-12-15T00:16:40.377Z,94848.06
2022-12-15T00:19:27.086Z,94856.50
2022-12-15T00:22:12.253Z,94849.94
2022-12-15T00:24:57.424Z,94855.84
2022-12-15T00:27:42.679Z,94850.00
2022-12-15T00:30:29.396Z,94851.78
2022-12-15T00:33:14.617Z,94852.94
2022-12-15T00:36:01.464Z,94858.19
2022-12-15T00:38:44.613Z,94868.13
2022-12-15T00:41:13.063Z,94865.84
2022-12-15T00:43:41.003Z,94883.03
2022-12-15T00:46:26.426Z,94879.88
2022-12-15T00:48:54.449Z,94884.94
2022-12-15T00:51:43.261Z,94894.31
2022-12-15T00:54:28.863Z,94895.94
2022-12-15T00:57:14.036Z,94890.88
2022-12-15T00:59:59.379Z,94901.34
2022-12-15T01:02:45.121Z,94898.53
2022-12-15T01:05:30.836Z,94903.59
2022-12-15T01:08:19.110Z,94907.81
2022-12-15T01:11:04.310Z,94920.34
2022-12-15T01:13:49.955Z,94927.22
2022-12-15T01:16:35.478Z,94933.94
2022-12-15T01:19:21.605Z,94933.03
2022-12-15T01:21:49.957Z,94921.91
2022-12-15T01:24:19.297Z,94922.84
2022-12-15T01:26:47.209Z,94936.34
2022-12-15T01:29:15.136Z,94927.22
2022-12-15T01:31:44.162Z,94936.06
2022-12-15T01:34:12.184Z,94935.22
2022-12-15T01:36:40.224Z,94936.94
2022-12-15T01:39:08.311Z,94946.25
2022-12-15T01:41:36.595Z,94948.84
2022-12-15T01:44:18.732Z,94941.09
2022-12-15T01:46:47.237Z,94938.00
2022-12-15T01:49:17.348Z,94944.97
2022-12-15T01:51:48.465Z,94934.06
2022-12-15T01:54:18.496Z,94943.88
2022-12-15T01:56:49.802Z,94944.91
2022-12-15T01:59:20.700Z,94937.44
2022-12-15T02:01:49.683Z,94937.56
2022-12-15T02:04:19.574Z,94942.59
2022-12-15T02:06:47.553Z,94949.16
2022-12-15T02:09:16.267Z,94953.16
2022-12-15T02:12:03.923Z,94954.66
2022-12-15T02:14:41.665Z,94961.31
2022-12-15T02:17:17.387Z,94962.47
2022-12-15T02:20:25.522Z,94973.97
2022-12-15T02:23:25.245Z,94979.00
2022-12-15T02:26:20.947Z,94977.31
2022-12-15T02:28:55.049Z,94972.28
2022-12-15T02:31:45.630Z,94973.09
2022-12-15T02:34:23.569Z,94983.28
2022-12-15T02:36:55.418Z,94988.16
2022-12-15T02:39:24.685Z,94985.66
2022-12-15T02:41:53.116Z,94993.03
2022-12-15T02:44:23.936Z,94982.31
2022-12-15T02:47:18.956Z,94994.00
2022-12-15T02:49:54.870Z,94992.34
2022-12-15T02:52:30.144Z,95003.19
2022-12-15T02:55:05.846Z,94995.16
2022-12-15T02:57:39.543Z,95004.50
2022-12-15T03:00:09.766Z,94998.31
2022-12-15T03:02:41.000Z,94993.63
2022-12-15T03:05:10.054Z,94999.06
2022-12-15T03:07:37.941Z,95023.25
2022-12-15T03:10:07.844Z,95024.69
2022-12-15T03:12:35.812Z,95025.50
2022-12-15T03:15:03.759Z,95025.56
2022-12-15T03:17:31.660Z,95011.34
2022-12-15T03:20:00.975Z,95027.06
2022-12-15T03:22:28.895Z,95026.47
2022-12-15T03:24:56.895Z,95024.09
2022-12-15T03:27:24.791Z,95027.19
2022-12-15T03:29:52.685Z,95040.63
2022-12-15T03:32:20.646Z,95026.25
2022-12-15T03:34:48.633Z,95049.56
2022-12-15T03:37:17.883Z,95055.88
2022-12-15T03:39:45.756Z,95050.16
2022-12-15T03:42:13.658Z,95050.25
2022-12-15T03:44:41.552Z,95047.88
2022-12-15T03:47:09.499Z,95055.44
2022-12-15T03:49:37.422Z,95054.56
2022-12-15T03:52:05.479Z,95064.66
2022-12-15T03:54:34.724Z,95066.38
2022-12-15T03:57:02.691Z,95071.53
2022-12-15T03:59:30.556Z,95083.16
2022-12-15T04:01:58.651Z,95083.94
2022-12-15T04:04:26.612Z,95083.28
2022-12-15T04:06:54.510Z,95085.75
2022-12-15T04:09:22.464Z,95090.75
2022-12-15T04:11:51.721Z,95093.41
2022-12-15T04:14:19.635Z,95099.09
2022-12-15T04:16:47.602Z,95098.28
2022-12-15T04:19:33.135Z,95105.81
2022-12-15T04:22:02.595Z,95119.34
2022-12-15T04:24:48.078Z,95135.16
2022-12-15T04:27:35.173Z,95133.44
2022-12-15T04:30:20.841Z,95136.03
2022-12-15T04:33:06.165Z,95124.22
2022-12-15T04:35:52.337Z,95144.28
2022-12-15T04:38:41.466Z,95137.78
2022-12-15T04:41:29.333Z,95137.16
2022-12-15T04:44:16.211Z,95136.97
2022-12-15T04:47:01.441Z,95146.06
2022-12-15T04:49:46.739Z,95147.94
2022-12-15T04:52:31.932Z,95155.50
2022-12-15T04:55:17.218Z,95161.34
2022-12-15T04:58:02.482Z,95150.25
2022-12-15T05:00:49.200Z,95164.59
2022-12-15T05:03:34.845Z,95163.00
2022-12-15T05:06:20.188Z,95171.13
2022-12-15T05:09:05.387Z,95171.13
2022-12-15T05:11:50.666Z,95173.81
2022-12-15T05:14:36.009Z,95176.31
2022-12-15T05:17:22.953Z,95178.03
2022-12-15T05:20:08.348Z,95175.47
2022-12-15T05:22:53.592Z,95177.97
2022-12-15T05:25:39.635Z,95174.63
2022-12-15T05:28:25.363Z,95188.81
2022-12-15T05:31:10.726Z,95198.41
2022-12-15T05:33:40.072Z,95195.97
2022-12-15T05:36:08.922Z,95188.81
2022-12-15T05:38:36.811Z,95204.13
2022-12-15T05:41:04.689Z,95201.69
2022-12-15T05:43:33.035Z,95198.28
2022-12-15T05:46:04.329Z,95218.19
2022-12-15T05:48:32.276Z,95218.34
2022-12-15T05:51:05.892Z,95220.94
2022-12-15T05:53:34.055Z,95217.59
2022-12-15T05:56:03.224Z,95224.19
2022-12-15T05:58:31.197Z,95226.78
2022-12-15T06:01:04.729Z,95229.13
2022-12-15T06:03:33.352Z,95238.88
2022-12-15T06:06:02.547Z,95241.88
2022-12-15T06:08:33.380Z,95246.44
2022-12-15T06:11:01.813Z,95254.53
2022-12-15T06:13:31.773Z,95258.69
2022-12-15T06:16:01.628Z,95259.09
2022-12-15T06:18:31.390Z,95255.94
2022-12-15T06:21:00.021Z,95259.09
2022-12-15T06:23:29.766Z,95266.59
2022-12-15T06:26:00.091Z,95269.84
2022-12-15T06:28:28.040Z,95268.91
2022-12-15T06:30:57.265Z,95271.38
2022-12-15T06:33:25.204Z,95265.69
2022-12-15T06:35:53.119Z,95268.97
2022-12-15T06:38:21.243Z,95259.06
2022-12-15T06:40:56.529Z,95258.69
2022-12-15T06:43:26.251Z,95267.97
2022-12-15T06:45:54.160Z,95263.75
2022-12-15T06:48:22.856Z,95269.59
2022-12-15T06:50:51.334Z,95269.84
2022-12-15T06:53:20.897Z,95273.06
2022-12-15T06:55:49.229Z,95283.28
2022-12-15T06:58:18.235Z,95284.59
2022-12-15T07:00:47.613Z,95282.38
2022-12-15T07:03:17.707Z,95291.94
2022-12-15T07:05:46.549Z,95288.09
2022-12-15T07:08:16.140Z,95288.94
2022-12-15T07:10:45.111Z,95288.81
2022-12-15T07:13:13.613Z,95299.50
2022-12-15T07:15:42.891Z,95296.25
2022-12-15T07:18:12.216Z,95298.72
2022-12-15T07:20:40.135Z,95289.34
2022-12-15T07:23:09.707Z,95289.47
2022-12-15T07:25:38.144Z,95299.97
2022-12-15T07:28:06.680Z,95307.81
2022-12-15T07:30:38.720Z,95301.75
2022-12-15T07:33:07.428Z,95306.56
2022-12-15T07:35:36.731Z,95312.28
2022-12-15T07:38:07.480Z,95315.66
2022-12-15T07:40:35.764Z,95315.91
2022-12-15T07:43:03.821Z,95325.59
2022-12-15T07:45:31.840Z,95322.66
2022-12-15T07:47:59.780Z,95326.66
2022-12-15T07:50:29.077Z,95324.16
2022-12-15T07:52:58.371Z,95341.09
2022-12-15T07:55:50.089Z,95337.03
2022-12-15T07:58:14.583Z,95343.88
2022-12-15T08:00:46.978Z,95359.13
2022-12-15T08:03:17.031Z,95348.38
2022-12-15T08:05:45.278Z,95346.94
2022-12-15T08:08:15.593Z,95348.63
2022-12-15T08:10:43.633Z,95343.53
2022-12-15T08:13:21.614Z,95351.06
2022-12-15T08:15:59.612Z,95348.56
2022-12-15T08:18:27.611Z,95343.53
2022-12-15T08:20:56.577Z,95357.25
2022-12-15T08:23:25.881Z,95350.66
2022-12-15T08:25:53.878Z,95361.63
2022-12-15T08:28:22.363Z,95366.78
2022-12-15T08:30:50.307Z,95359.91
2022-12-15T08:33:18.203Z,95351.44
2022-12-15T08:35:56.699Z,95356.41
2022-12-15T08:38:26.575Z,95356.53
2022-12-15T08:40:54.500Z,95360.63
2022-12-15T08:43:22.519Z,95352.91
2022-12-15T08:45:50.536Z,95342.28
2022-12-15T08:48:18.531Z,95336.94
2022-12-15T08:50:46.680Z,95350.22
2022-12-15T08:53:32.577Z,95363.13
2022-12-15T08:56:06.086Z,95361.56
2022-12-15T08:58:34.020Z,95356.56
2022-12-15T09:01:02.377Z,95369.97
2022-12-15T09:03:31.046Z,95374.47
2022-12-15T09:06:03.890Z,95381.66
2022-12-15T09:08:32.025Z,95378.84
2022-12-15T09:11:00.614Z,95371.94
2022-12-15T09:13:30.475Z,95374.59
2022-12-15T09:16:14.250Z,95368.91
2022-12-15T09:18:43.457Z,95378.66
2022-12-15T09:21:12.267Z,95384.06
2022-12-15T09:23:40.957Z,95382.50
2022-12-15T09:26:10.013Z,95376.91
2022-12-15T09:28:39.732Z,95384.63
2022-12-15T09:31:08.820Z,95404.41
2022-12-15T09:33:37.100Z,95412.63
2022-12-15T09:36:05.969Z,95404.53
2022-12-15T09:38:34.717Z,95418.16
2022-12-15T09:41:09.784Z,95415.19
2022-12-15T09:43:46.441Z,95415.66
2022-12-15T09:46:20.390Z,95410.38
2022-12-15T09:48:49.477Z,95413.25
2022-12-15T09:51:19.521Z,95420.56
2022-12-15T09:53:56.083Z,95416.03
2022-12-15T09:56:29.603Z,95420.34
2022-12-15T09:59:04.648Z,95428.38
2022-12-15T10:01:38.386Z,95426.81
2022-12-15T10:04:09.035Z,95428.84
2022-12-15T10:06:40.089Z,95422.38
2022-12-15T10:09:18.309Z,95405.94
2022-12-15T10:11:50.675Z,95406.53
2022-12-15T10:14:27.481Z,95407.41
2022-12-15T10:17:02.903Z,95409.72
2022-12-15T10:19:40.322Z,95413.03
2022-12-15T10:22:13.043Z,95413.75
2022-12-15T10:27:53.305Z,95418.66
2022-12-15T10:30:23.994Z,95411.84
2022-12-15T10:32:58.472Z,95390.56
2022-12-15T10:35:29.781Z,95397.16
2022-12-15T10:38:00.006Z,95394.59
2022-12-15T10:40:50.322Z,95390.00
2022-12-15T10:43:28.058Z,95387.31
2022-12-15T10:46:06.806Z,95385.31
2022-12-15T10:48:34.750Z,95392.38
2022-12-15T10:51:22.194Z,95389.78
2022-12-15T10:53:52.353Z,95389.94
2022-12-15T10:56:32.449Z,95379.81
2022-12-15T10:59:02.967Z,95374.66
2022-12-15T11:01:35.691Z,95371.31
2022-12-15T11:04:04.079Z,95379.47
2022-12-15T11:06:34.262Z,95371.19
2022-12-15T11:09:10.154Z,95377.44
2022-12-15T11:12:06.368Z,95379.53
2022-12-15T11:14:45.902Z,95369.28
2022-12-15T11:17:18.670Z,95359.63
2022-12-15T11:19:56.735Z,95356.91
2022-12-15T11:22:37.047Z,95349.28
2022-12-15T11:25:10.823Z,95360.53
2022-12-15T11:27:39.439Z,95352.41
2022-12-15T11:30:14.930Z,95359.13
2022-12-15T11:32:46.947Z,95365.13
2022-12-15T11:35:19.111Z,95371.06
2022-12-15T11:37:49.562Z,95361.50
2022-12-15T11:40:39.862Z,95351.72
2022-12-15T11:43:36.829Z,95349.28
2022-12-15T11:46:16.132Z,95341.34
2022-12-15T11:48:54.803Z,95348.22
2022-12-15T11:51:26.537Z,95340.84
2022-12-15T11:54:06.914Z,95335.56
2022-12-15T11:56:35.858Z,95332.69
2022-12-15T11:59:20.390Z,95342.50
2022-12-15T12:02:02.967Z,95354.94
2022-12-15T12:04:40.221Z,95353.81
2022-12-15T12:07:10.552Z,95351.38
2022-12-15T12:09:42.160Z,95350.47
2022-12-15T12:12:17.390Z,95360.47
2022-12-15T12:14:52.615Z,95356.06
2022-12-15T12:17:28.953Z,95359.44
2022-12-15T12:20:00.012Z,95364.06
2022-12-15T12:22:31.916Z,95378.44
2022-12-15T12:25:03.612Z,95366.88
2022-12-15T12:27:37.753Z,95374.63
2022-12-15T12:30:09.893Z,95374.56
2022-12-15T12:32:43.421Z,95375.84
2022-12-15T12:35:30.544Z,95377.88
2022-12-15T12:38:03.937Z,95388.00
2022-12-15T12:40:42.365Z,95384.94
2022-12-15T12:43:14.098Z,95392.16
2022-12-15T12:45:50.229Z,95382.59
2022-12-15T12:48:23.797Z,95380.47
2022-12-15T12:50:53.152Z,95386.00
2022-12-15T12:53:34.280Z,95389.00
2022-12-15T12:56:02.540Z,95383.59
2022-12-15T12:58:34.517Z,95378.47
2022-12-15T13:01:08.219Z,95372.91
2022-12-15T13:03:40.188Z,95369.44
2022-12-15T13:06:24.112Z,95371.00
2022-12-15T13:08:53.255Z,95347.16
2022-12-15T13:11:53.581Z,95361.97
2022-12-15T13:14:26.504Z,95367.41
2022-12-15T13:17:24.768Z,95379.97
2022-12-15T13:20:20.109Z,95388.25
2022-12-15T13:22:49.649Z,95392.16
2022-12-15T13:25:40.512Z,95389.66
2022-12-15T13:28:39.612Z,95387.28
2022-12-15T13:31:27.581Z,95383.44
2022-12-15T13:34:07.398Z,95391.84
2022-12-15T13:36:55.041Z,95393.72
2022-12-15T13:39:36.396Z,95402.47
2022-12-15T13:42:51.214Z,95406.34
2022-12-15T13:45:50.275Z,95399.69
2022-12-15T13:48:25.615Z,95403.31
2022-12-15T13:50:58.500Z,95401.97
2022-12-15T13:53:28.212Z,95389.41
2022-12-15T13:56:07.336Z,95388.75
2022-12-15T13:58:40.936Z,95386.44
2022-12-15T14:01:20.656Z,95391.31
2022-12-15T14:03:59.948Z,95390.19
2022-12-15T14:06:35.573Z,95397.69
2022-12-15T14:09:03.598Z,95405.22
2022-12-15T14:11:52.464Z,95401.06
2022-12-15T14:14:24.436Z,95398.03
2022-12-15T14:16:58.685Z,95399.69
2022-12-15T14:19:26.787Z,95399.59
2022-12-15T14:21:55.961Z,95398.03
2022-12-15T14:24:44.280Z,95400.56
2022-12-15T14:27:24.072Z,95406.31
2022-12-15T14:30:13.516Z,95395.53
2022-12-15T14:32:42.223Z,95383.22
2022-12-15T14:35:14.581Z,95380.72
2022-12-15T14:37:43.743Z,95379.22
2022-12-15T14:40:15.873Z,95368.41
2022-12-15T14:42:46.329Z,95360.69
2022-12-15T14:45:20.429Z,95366.50
2022-12-15T14:50:47.549Z,95369.66
2022-12-15T14:53:17.806Z,95368.50
2022-12-15T14:55:46.362Z,95360.88
2022-12-15T14:58:30.636Z,95371.03
2022-12-15T15:00:59.562Z,95360.88
2022-12-15T15:03:35.185Z,95355.97
2022-12-15T15:06:06.216Z,95355.00
2022-12-15T15:08:36.687Z,95337.63
2022-12-15T15:11:21.282Z,95338.63
2022-12-15T15:13:56.093Z,95336.91
2022-12-15T15:16:24.305Z,95342.03
2022-12-15T15:18:54.690Z,95342.66
2022-12-15T15:21:25.599Z,95339.91
2022-12-15T15:24:01.259Z,95354.34
2022-12-15T15:26:30.881Z,95364.00
2022-12-15T15:29:00.391Z,95377.91
2022-12-15T15:31:36.850Z,95382.31
2022-12-15T15:34:08.608Z,95405.50
2022-12-15T15:36:38.306Z,95407.34
2022-12-15T15:39:12.320Z,95408.28
2022-12-15T15:41:40.968Z,95403.50
2022-12-15T15:44:14.148Z,95407.69
2022-12-15T15:46:46.557Z,95401.19
2022-12-15T15:49:17.412Z,95394.50
2022-12-15T15:51:45.349Z,95388.50
2022-12-15T15:54:16.348Z,95394.41
2022-12-15T15:56:44.355Z,95390.31
2022-12-15T15:59:16.416Z,95376.78
2022-12-15T16:01:45.137Z,95371.53
2022-12-15T16:04:13.446Z,95376.47
2022-12-15T16:06:46.937Z,95360.72
2022-12-15T16:09:16.965Z,95358.09
2022-12-15T16:11:45.795Z,95354.72
2022-12-15T16:14:17.146Z,95354.63
2022-12-15T16:16:45.478Z,95350.44
2022-12-15T16:19:13.936Z,95338.25
2022-12-15T16:21:43.643Z,95332.41
2022-12-15T16:24:15.160Z,95329.84
2022-12-15T16:26:47.228Z,95328.44
2022-12-15T16:29:18.842Z,95305.19
2022-12-15T16:31:46.968Z,95328.94
2022-12-15T16:34:16.492Z,95327.53
2022-12-15T16:36:45.040Z,95329.06
2022-12-15T16:39:26.660Z,95325.88
2022-12-15T16:41:55.916Z,95318.53
2022-12-15T16:44:25.559Z,95326.03
2022-12-15T16:46:53.571Z,95338.50
2022-12-15T16:49:21.688Z,95351.81
2022-12-15T16:51:52.271Z,95339.09
2022-12-15T16:54:22.145Z,95336.00
2022-12-15T16:56:52.063Z,95329.53
2022-12-15T16:59:36.863Z,95326.56
2022-12-15T17:02:21.479Z,95317.47
2022-12-15T17:04:50.256Z,95314.88
2022-12-15T17:07:20.658Z,95306.59
2022-12-15T17:09:49.739Z,95314.88
2022-12-15T17:12:19.036Z,95304.78
2022-12-15T17:14:47.013Z,95290.03
2022-12-15T17:17:18.393Z,95299.06
2022-12-15T17:22:34.758Z,95314.75
2022-12-15T17:25:02.780Z,95309.16
2022-12-15T17:27:31.849Z,95290.66
2022-12-15T17:30:01.244Z,95299.94
2022-12-15T17:32:30.676Z,95300.81
2022-12-15T17:34:58.549Z,95303.31
2022-12-15T17:37:31.872Z,95297.56
2022-12-15T17:40:03.192Z,95297.44
2022-12-15T17:42:31.139Z,95290.78
2022-12-15T17:44:59.160Z,95294.88
2022-12-15T17:47:29.608Z,95303.97
2022-12-15T17:49:58.944Z,95290.53
2022-12-15T17:52:29.123Z,95296.56
2022-12-15T17:54:57.376Z,95282.38
2022-12-15T17:57:25.471Z,95285.75
2022-12-15T17:59:53.472Z,95300.69
2022-12-15T18:02:21.509Z,95297.94
2022-12-15T18:04:50.000Z,95305.59
2022-12-15T18:07:20.998Z,95315.63
2022-12-15T18:09:49.471Z,95304.66
2022-12-15T18:12:19.162Z,95296.09
2022-12-15T18:14:47.091Z,95301.75
2022-12-15T18:17:15.332Z,95302.47
2022-12-15T18:19:43.228Z,95291.81
2022-12-15T18:22:12.787Z,95289.22
2022-12-15T18:24:42.320Z,95287.31
2022-12-15T18:27:21.992Z,95291.47
2022-12-15T18:29:50.254Z,95279.66
2022-12-15T18:32:18.355Z,95278.00
2022-12-15T18:34:46.621Z,95272.38
2022-12-15T18:37:16.922Z,95266.34
2022-12-15T18:39:46.559Z,95261.59
2022-12-15T18:42:16.354Z,95248.34
2022-12-15T18:44:46.900Z,95262.44
2022-12-15T18:47:17.937Z,95259.94
2022-12-15T18:49:46.212Z,95269.47
2022-12-15T18:52:17.380Z,95254.47
2022-12-15T18:54:47.699Z,95258.56
2022-12-15T18:57:27.549Z,95241.63
2022-12-15T18:59:58.309Z,95240.81
2022-12-15T19:02:26.372Z,95225.97
2022-12-15T19:04:54.415Z,95211.44
2022-12-15T19:07:22.343Z,95225.97
2022-12-15T19:09:51.660Z,95225.69
2022-12-15T19:12:19.919Z,95207.44
2022-12-15T19:14:49.223Z,95198.72
2022-12-15T19:17:36.424Z,95204.81
2022-12-15T19:20:25.856Z,95191.44
2022-12-15T19:22:54.089Z,95195.56
2022-12-15T19:25:26.699Z,95200.75
2022-12-15T19:27:58.967Z,95191.91
2022-12-15T19:30:28.217Z,95169.03
2022-12-15T19:32:56.540Z,95184.88
2022-12-15T19:35:25.066Z,95196.09
2022-12-15T19:37:55.261Z,95176.16
2022-12-15T19:40:27.554Z,95181.09
2022-12-15T19:42:55.912Z,95180.94
2022-12-15T19:45:25.800Z,95177.97
2022-12-15T19:47:54.159Z,95168.94
2022-12-15T19:50:24.114Z,95176.41
2022-12-15T19:52:54.815Z,95181.16
2022-12-15T19:55:27.520Z,95189.53
2022-12-15T19:57:55.528Z,95182.16
2022-12-15T20:00:25.111Z,95181.28
2022-12-15T20:02:54.940Z,95168.13
2022-12-15T20:05:23.687Z,95172.38
2022-12-15T20:07:52.843Z,95171.44
2022-12-15T20:10:27.685Z,95162.09
2022-12-15T20:13:01.079Z,95162.34
2022-12-15T20:15:29.142Z,95158.97
2022-12-15T20:17:57.667Z,95160.09
2022-12-15T20:20:27.010Z,95160.16
2022-12-15T20:22:56.822Z,95169.38
2022-12-15T20:25:27.733Z,95162.88
2022-12-15T20:27:55.748Z,95157.56
2022-12-15T20:30:26.888Z,95144.41
2022-12-15T20:32:55.237Z,95142.97
2022-12-15T20:35:23.581Z,95152.97
2022-12-15T20:37:52.583Z,95141.28
2022-12-15T20:40:23.025Z,95140.34
2022-12-15T20:42:52.473Z,95123.13
2022-12-15T20:45:23.153Z,95136.41
2022-12-15T20:47:53.904Z,95134.97
2022-12-15T20:50:25.627Z,95149.25
2022-12-15T20:52:53.630Z,95132.53
2022-12-15T20:55:23.519Z,95128.25
2022-12-15T20:57:51.451Z,95119.84
2022-12-15T21:00:23.644Z,95117.22
2022-12-15T21:02:55.311Z,95104.00
2022-12-15T21:05:25.426Z,95100.44
2022-12-15T21:07:53.764Z,95102.84
2022-12-15T21:10:22.033Z,95097.91
2022-12-15T21:12:50.748Z,95099.41
2022-12-15T21:15:20.950Z,95091.00
2022-12-15T21:17:57.927Z,95075.75
2022-12-15T21:20:40.465Z,95078.09
2022-12-15T21:23:17.660Z,95071.25
2022-12-15T21:25:45.665Z,95066.31
2022-12-15T21:28:13.760Z,95044.72
2022-12-15T21:30:42.187Z,95067.16
2022-12-15T21:33:10.561Z,95078.09
2022-12-15T21:35:40.817Z,95085.66
2022-12-15T21:38:21.557Z,95084.69
2022-12-15T21:40:53.256Z,95073.56
2022-12-15T21:43:27.615Z,95075.19
2022-12-15T21:45:55.553Z,95081.56
2022-12-15T21:48:41.106Z,95079.28
2022-12-15T21:51:14.814Z,95069.03
2022-12-15T21:53:46.494Z,95050.47
2022-12-15T21:56:18.527Z,95061.59
2022-12-15T21:58:49.022Z,95069.66
2022-12-15T22:01:18.549Z,95069.72
2022-12-15T22:03:50.544Z,95067.75
2022-12-15T22:06:21.744Z,95049.78
2022-12-15T22:08:50.207Z,95056.53
2022-12-15T22:11:21.877Z,95059.94
2022-12-15T22:13:51.241Z,95045.78
2022-12-15T22:16:20.477Z,95046.06
2022-12-15T22:18:50.723Z,95067.69
2022-12-15T22:21:20.970Z,95065.03
2022-12-15T22:23:48.947Z,95062.09
2022-12-15T22:26:22.499Z,95059.72
2022-12-15T22:28:51.090Z,95047.13
2022-12-15T22:31:19.934Z,95047.06
2022-12-15T22:33:47.993Z,95046.25
2022-12-15T22:36:15.892Z,95039.53
2022-12-15T22:38:47.021Z,95047.13
2022-12-15T22:41:19.675Z,95050.38
2022-12-15T22:43:50.092Z,95029.41
2022-12-15T22:46:18.202Z,95052.28
2022-12-15T22:48:47.374Z,95040.81
2022-12-15T22:51:17.142Z,95029.75
2022-12-15T22:53:46.769Z,95014.09
2022-12-15T22:56:23.070Z,95032.63
2022-12-15T22:58:52.429Z,95013.72
2022-12-15T23:01:21.431Z,95018.91
2022-12-15T23:03:49.403Z,95022.97
2022-12-15T23:06:17.367Z,95016.41
2022-12-15T23:08:48.262Z,95020.53
2022-12-15T23:11:36.938Z,95010.78
2022-12-15T23:14:05.295Z,95012.47
2022-12-15T23:16:32.355Z,95002.50
2022-12-15T23:19:00.716Z,94994.88
2022-12-15T23:21:28.934Z,94987.03
2022-12-15T23:23:58.750Z,94991.59
2022-12-15T23:26:26.961Z,94975.59
2022-12-15T23:28:55.427Z,94974.81
2022-12-15T23:31:23.496Z,94968.06
2022-12-15T23:33:52.319Z,94948.69
2022-12-15T23:36:20.776Z,94961.09
2022-12-15T23:38:48.783Z,94940.97
2022-12-15T23:41:18.840Z,94929.25
2022-12-15T23:43:46.781Z,94918.41
2022-12-15T23:46:15.315Z,94913.38
2022-12-15T23:48:44.807Z,94881.00
2022-12-15T23:51:14.416Z,94890.56
2022-12-15T23:53:42.858Z,94873.00
2022-12-15T23:56:13.248Z,94853.41
2022-12-15T23:58:44.953Z,94838.22
